Airport View

Enter AWOS ICAO identifier for current METAR.

ex. KFNL

KS33 200010Z AUTO 33009KT 10SM CLR 16/05 A3013 RMK AO2

20 Oct 2020 00:14

Frequency: 132.425

Phone: 541-475-0494

Other Area AWOS: KRDM - KS39 - KBDN - KS21

TAF KRDM 192327Z 2000/2024 31011KT P6SM SCT250 FM200200 32008KT P6SM SCT250 FM201000 VRB05KT P6SM FEW070 SCT200 BKN250 FM202000 32009KT P6SM BKN070